Time,TemperatureF,DewpointF,PressureIn,WindDirection,WindDirectionDegrees,WindSpeedMPH,WindSpeedGustMPH,Humidity,HourlyPrecipIn,Conditions,Clouds,dailyrainin,SoftwareType,DateUTC
2013-01-08 00:01:00,30.8,-11.0,29.75,WSW,240,6.0,17.0,16,0.00,,,0.00,weatherlink.com 1.10,2013-01-08 07:01:00,
2013-01-08 00:16:00,31.1,-10.0,29.75,WSW,257,21.0,22.0,16,0.00,,,0.00,weatherlink.com 1.10,2013-01-08 07:16:00,
2013-01-08 00:31:00,31.2,-9.0,29.73,WSW,237,17.0,36.0,17,0.00,,,0.00,weatherlink.com 1.10,2013-01-08 07:31:00,
2013-01-08 00:46:00,31.3,-9.0,29.73,West,259,15.0,31.0,17,0.00,,,0.00,weatherlink.com 1.10,2013-01-08 07:46:00,
2013-01-08 01:02:00,30.4,-10.0,29.73,SSW,208,19.0,34.0,17,0.00,,,0.00,weatherlink.com 1.10,2013-01-08 08:02:00,
2013-01-08 01:17:00,29.9,-7.0,29.72,WSW,240,33.0,33.0,20,0.00,,,0.00,weatherlink.com 1.10,2013-01-08 08:17:00,
2013-01-08 01:32:00,29.8,-1.0,29.72,WSW,249,31.0,41.0,27,0.00,,,0.00,weatherlink.com 1.10,2013-01-08 08:32:00,
2013-01-08 01:47:00,30.3,1.0,29.75,WSW,247,24.0,30.0,28,0.00,,,0.00,weatherlink.com 1.10,2013-01-08 08:47:00,
2013-01-08 02:02:00,30.6,2.0,29.76,WNW,292,9.0,29.0,30,0.00,,,0.00,weatherlink.com 1.10,2013-01-08 09:02:00,
2013-01-08 02:17:00,30.6,-1.0,29.77,SW,223,16.0,21.0,26,0.00,,,0.00,weatherlink.com 1.10,2013-01-08 09:17:00,
2013-01-08 02:32:00,29.8,-1.0,29.78,WSW,240,12.0,28.0,26,0.00,,,0.00,weatherlink.com 1.10,2013-01-08 09:32:00,
2013-01-08 02:47:00,29.3,0.0,29.78,SW,226,8.0,25.0,28,0.00,,,0.00,weatherlink.com 1.10,2013-01-08 09:47:00,
2013-01-08 03:02:00,29.1,3.0,29.76,WSW,238,13.0,33.0,33,0.00,,,0.00,weatherlink.com 1.10,2013-01-08 10:02:00,
2013-01-08 03:17:00,28.9,4.0,29.73,SSW,200,12.0,35.0,34,0.00,,,0.00,weatherlink.com 1.10,2013-01-08 10:17:00,
2013-01-08 03:32:00,29.1,5.0,29.72,WSW,237,13.0,30.0,36,0.00,,,0.00,weatherlink.com 1.10,2013-01-08 10:32:00,
2013-01-08 03:47:00,29.4,7.0,29.73,SW,215,7.0,40.0,39,0.00,,,0.00,weatherlink.com 1.10,2013-01-08 10:47:00,
2013-01-08 04:02:00,29.2,9.0,29.74,WNW,296,11.0,37.0,42,0.00,,,0.00,weatherlink.com 1.10,2013-01-08 11:02:00,
2013-01-08 04:17:00,29.2,9.0,29.76,WSW,258,17.0,38.0,42,0.00,,,0.00,weatherlink.com 1.10,2013-01-08 11:17:00,
2013-01-08 04:33:00,28.8,8.0,29.76,SW,236,17.0,46.0,42,0.00,,,0.00,weatherlink.com 1.10,2013-01-08 11:33:00,
2013-01-08 04:48:00,28.4,8.0,29.78,WSW,244,24.0,36.0,43,0.00,,,0.00,weatherlink.com 1.10,2013-01-08 11:48:00,
2013-01-08 05:03:00,27.7,8.0,29.75,WSW,250,33.0,38.0,44,0.00,,,0.00,weatherlink.com 1.10,2013-01-08 12:03:00,
2013-01-08 05:18:00,27.7,8.0,29.75,WSW,255,38.0,39.0,43,0.00,,,0.00,weatherlink.com 1.10,2013-01-08 12:18:00,
2013-01-08 05:33:00,28.5,10.0,29.75,SW,234,20.0,59.0,45,0.00,,,0.00,weatherlink.com 1.10,2013-01-08 12:33:00,
2013-01-08 05:48:00,28.1,9.0,29.76,WSW,240,39.0,49.0,44,0.00,,,0.00,weatherlink.com 1.10,2013-01-08 12:48:00,
2013-01-08 06:03:00,27.7,9.0,29.76,WSW,248,23.0,43.0,45,0.00,,,0.00,weatherlink.com 1.10,2013-01-08 13:03:00,
2013-01-08 06:18:00,28.0,9.0,29.77,WSW,251,29.0,46.0,45,0.00,,,0.00,weatherlink.com 1.10,2013-01-08 13:18:00,
2013-01-08 06:33:00,28.1,10.0,29.78,SSW,210,34.0,48.0,47,0.00,,,0.00,weatherlink.com 1.10,2013-01-08 13:33:00,
2013-01-08 06:48:00,28.6,11.0,29.77,WSW,241,34.0,46.0,47,0.00,,,0.00,weatherlink.com 1.10,2013-01-08 13:48:00,
2013-01-08 07:03:00,30.5,10.0,29.80,WSW,257,18.0,47.0,42,0.00,,,0.00,weatherlink.com 1.10,2013-01-08 14:03:00,
2013-01-08 07:18:00,27.3,11.0,29.79,WSW,239,21.0,38.0,50,0.00,,,0.00,weatherlink.com 1.10,2013-01-08 14:18:00,
2013-01-08 07:33:00,26.9,11.0,29.83,West,260,31.0,45.0,52,0.00,,,0.00,weatherlink.com 1.10,2013-01-08 14:33:00,
2013-01-08 07:48:00,27.1,11.0,29.83,WSW,240,29.0,50.0,51,0.00,,,0.00,weatherlink.com 1.10,2013-01-08 14:48:00,
2013-01-08 08:04:00,27.7,12.0,29.84,WSW,238,10.0,43.0,51,0.00,,,0.00,weatherlink.com 1.10,2013-01-08 15:04:00,
2013-01-08 08:19:00,29.0,11.0,29.84,West,264,20.0,46.0,47,0.00,,,0.00,weatherlink.com 1.10,2013-01-08 15:19:00,
2013-01-08 08:34:00,27.7,12.0,29.86,WSW,247,24.0,38.0,51,0.00,,,0.00,weatherlink.com 1.10,2013-01-08 15:34:00,
2013-01-08 08:49:00,28.2,11.0,29.91,WSW,255,20.0,42.0,49,0.00,,,0.00,weatherlink.com 1.10,2013-01-08 15:49:00,
2013-01-08 09:04:00,27.2,12.0,29.91,West,278,16.0,30.0,52,0.00,,,0.00,weatherlink.com 1.10,2013-01-08 16:04:00,
2013-01-08 09:19:00,26.9,12.0,29.91,SSW,200,15.0,28.0,54,0.00,,,0.00,weatherlink.com 1.10,2013-01-08 16:19:00,
2013-01-08 09:34:00,27.5,13.0,29.91,SW,234,6.0,19.0,54,0.00,,,0.00,weatherlink.com 1.10,2013-01-08 16:34:00,
2013-01-08 09:49:00,28.3,12.0,29.92,SW,216,4.0,17.0,51,0.00,,,0.00,weatherlink.com 1.10,2013-01-08 16:49:00,
2013-01-08 10:04:00,27.9,13.0,29.92,SW,236,3.0,22.0,54,0.00,,,0.00,weatherlink.com 1.10,2013-01-08 17:04:00,
2013-01-08 10:19:00,27.7,13.0,29.92,WSW,256,10.0,20.0,55,0.00,,,0.00,weatherlink.com 1.10,2013-01-08 17:19:00,
2013-01-08 10:34:00,28.0,14.0,29.92,SW,225,3.0,24.0,56,0.00,,,0.00,weatherlink.com 1.10,2013-01-08 17:34:00,
2013-01-08 10:49:00,28.2,14.0,29.92,South,190,10.0,22.0,56,0.00,,,0.00,weatherlink.com 1.10,2013-01-08 17:49:00,
2013-01-08 11:04:00,28.3,14.0,29.92,WSW,238,3.0,19.0,56,0.00,,,0.00,weatherlink.com 1.10,2013-01-08 18:04:00,
2013-01-08 11:19:00,28.4,14.0,29.90,West,272,12.0,25.0,56,0.00,,,0.00,weatherlink.com 1.10,2013-01-08 18:19:00,
2013-01-08 11:35:00,28.7,14.0,29.90,SW,226,24.0,35.0,55,0.00,,,0.00,weatherlink.com 1.10,2013-01-08 18:35:00,
2013-01-08 11:50:00,28.1,14.0,29.89,SSW,206,26.0,39.0,56,0.00,,,0.00,weatherlink.com 1.10,2013-01-08 18:50:00,
2013-01-08 12:05:00,27.9,14.0,29.91,NW,324,16.0,39.0,57,0.00,,,0.00,weatherlink.com 1.10,2013-01-08 19:05:00,
2013-01-08 12:20:00,27.9,14.0,29.93,WSW,252,15.0,32.0,57,0.00,,,0.00,weatherlink.com 1.10,2013-01-08 19:20:00,
2013-01-08 12:35:00,28.0,14.0,29.93,WNW,299,6.0,30.0,57,0.00,,,0.00,weatherlink.com 1.10,2013-01-08 19:35:00,
2013-01-08 12:50:00,28.1,14.0,29.93,West,264,6.0,26.0,56,0.00,,,0.00,weatherlink.com 1.10,2013-01-08 19:50:00,
2013-01-08 13:05:00,28.9,14.0,29.94,NW,316,3.0,30.0,55,0.00,,,0.00,weatherlink.com 1.10,2013-01-08 20:05:00,
2013-01-08 13:20:00,29.7,15.0,29.96,SSE,162,4.0,28.0,54,0.00,,,0.00,weatherlink.com 1.10,2013-01-08 20:20:00,
2013-01-08 13:35:00,29.9,15.0,29.95,South,184,6.0,22.0,53,0.00,,,0.00,weatherlink.com 1.10,2013-01-08 20:35:00,
2013-01-08 13:50:00,29.9,15.0,29.97,West,267,12.0,22.0,53,0.00,,,0.00,weatherlink.com 1.10,2013-01-08 20:50:00,
2013-01-08 14:05:00,30.1,15.0,29.99,WNW,303,5.0,18.0,53,0.00,,,0.00,weatherlink.com 1.10,2013-01-08 21:05:00,
2013-01-08 14:20:00,30.0,15.0,30.00,WSW,250,15.0,19.0,54,0.00,,,0.00,weatherlink.com 1.10,2013-01-08 21:20:00,
2013-01-08 14:35:00,29.9,15.0,30.00,WSW,248,9.0,19.0,54,0.00,,,0.00,weatherlink.com 1.10,2013-01-08 21:35:00,
2013-01-08 14:50:00,29.9,15.0,30.00,West,267,16.0,22.0,54,0.00,,,0.00,weatherlink.com 1.10,2013-01-08 21:50:00,
2013-01-08 15:06:00,29.7,15.0,30.01,WSW,248,16.0,26.0,54,0.00,,,0.00,weatherlink.com 1.10,2013-01-08 22:06:00,
2013-01-08 15:21:00,29.7,15.0,30.03,West,265,10.0,20.0,54,0.00,,,0.00,weatherlink.com 1.10,2013-01-08 22:21:00,
2013-01-08 15:36:00,29.6,15.0,30.04,WSW,245,7.0,24.0,54,0.00,,,0.00,weatherlink.com 1.10,2013-01-08 22:36:00,
2013-01-08 15:51:00,29.5,15.0,30.04,WSW,241,20.0,27.0,54,0.00,,,0.00,weatherlink.com 1.10,2013-01-08 22:51:00,
2013-01-08 16:06:00,29.6,13.0,30.06,West,265,21.0,31.0,51,0.00,,,0.00,weatherlink.com 1.10,2013-01-08 23:06:00,
2013-01-08 16:21:00,29.4,14.0,30.06,WSW,238,12.0,38.0,52,0.00,,,0.00,weatherlink.com 1.10,2013-01-08 23:21:00,
2013-01-08 16:36:00,29.2,13.0,30.07,WSW,250,21.0,31.0,52,0.00,,,0.00,weatherlink.com 1.10,2013-01-08 23:36:00,
2013-01-08 16:51:00,29.0,13.0,30.09,SW,225,19.0,27.0,51,0.00,,,0.00,weatherlink.com 1.10,2013-01-08 23:51:00,
2013-01-08 17:06:00,28.6,13.0,30.11,SW,236,8.0,24.0,52,0.00,,,0.00,weatherlink.com 1.10,2013-01-09 00:06:00,
2013-01-08 17:21:00,28.6,13.0,30.12,WSW,249,13.0,22.0,52,0.00,,,0.00,weatherlink.com 1.10,2013-01-09 00:21:00,
2013-01-08 17:36:00,28.7,13.0,30.11,SSW,212,25.0,31.0,52,0.00,,,0.00,weatherlink.com 1.10,2013-01-09 00:36:00,
2013-01-08 17:51:00,30.2,11.0,30.11,West,277,21.0,30.0,45,0.00,,,0.00,weatherlink.com 1.10,2013-01-09 00:51:00,
2013-01-08 18:06:00,30.6,11.0,30.12,SW,234,7.0,30.0,45,0.00,,,0.00,weatherlink.com 1.10,2013-01-09 01:06:00,
2013-01-08 18:22:00,30.6,10.0,30.11,SW,231,14.0,39.0,43,0.00,,,0.00,weatherlink.com 1.10,2013-01-09 01:22:00,
2013-01-08 18:37:00,30.4,11.0,30.12,SSW,212,19.0,29.0,44,0.00,,,0.00,weatherlink.com 1.10,2013-01-09 01:37:00,
2013-01-08 18:52:00,30.1,11.0,30.14,SW,225,11.0,22.0,45,0.00,,,0.00,weatherlink.com 1.10,2013-01-09 01:52:00,
2013-01-08 19:07:00,30.3,9.0,30.13,WSW,257,19.0,27.0,41,0.00,,,0.00,weatherlink.com 1.10,2013-01-09 02:07:00,
2013-01-08 19:22:00,31.7,8.0,30.13,SW,230,7.0,23.0,37,0.00,,,0.00,weatherlink.com 1.10,2013-01-09 02:22:00,
2013-01-08 19:37:00,31.4,8.0,30.14,SW,232,20.0,24.0,38,0.00,,,0.00,weatherlink.com 1.10,2013-01-09 02:37:00,
2013-01-08 19:52:00,31.7,8.0,30.15,WSW,257,14.0,27.0,37,0.00,,,0.00,weatherlink.com 1.10,2013-01-09 02:52:00,
2013-01-08 20:22:00,32.0,7.0,30.17,WSW,238,11.0,23.0,35,0.00,,,0.00,weatherlink.com 1.10,2013-01-09 03:22:00,
2013-01-08 20:37:00,31.2,8.0,30.18,WSW,249,7.0,23.0,38,0.00,,,0.00,weatherlink.com 1.10,2013-01-09 03:37:00,
2013-01-08 20:52:00,30.6,8.0,30.20,SW,236,10.0,22.0,39,0.00,,,0.00,weatherlink.com 1.10,2013-01-09 03:52:00,
2013-01-08 21:07:00,30.2,9.0,30.20,WSW,237,19.0,23.0,41,0.00,,,0.00,weatherlink.com 1.10,2013-01-09 04:07:00,
2013-01-08 21:22:00,30.3,9.0,30.21,SW,230,8.0,24.0,41,0.00,,,0.00,weatherlink.com 1.10,2013-01-09 04:22:00,
2013-01-08 21:37:00,30.3,9.0,30.21,WSW,257,12.0,32.0,41,0.00,,,0.00,weatherlink.com 1.10,2013-01-09 04:37:00,
2013-01-08 21:53:00,30.1,9.0,30.22,WSW,254,15.0,22.0,42,0.00,,,0.00,weatherlink.com 1.10,2013-01-09 04:53:00,
2013-01-08 22:08:00,30.5,10.0,30.22,WSW,239,16.0,25.0,42,0.00,,,0.00,weatherlink.com 1.10,2013-01-09 05:08:00,
2013-01-08 22:23:00,30.5,10.0,30.23,SW,219,15.0,22.0,42,0.00,,,0.00,weatherlink.com 1.10,2013-01-09 05:23:00,
2013-01-08 22:38:00,30.5,10.0,30.24,WSW,244,11.0,22.0,42,0.00,,,0.00,weatherlink.com 1.10,2013-01-09 05:38:00,
2013-01-08 22:53:00,30.6,9.0,30.23,WSW,254,19.0,24.0,41,0.00,,,0.00,weatherlink.com 1.10,2013-01-09 05:53:00,
2013-01-08 23:08:00,31.0,10.0,30.23,West,260,20.0,22.0,41,0.00,,,0.00,weatherlink.com 1.10,2013-01-09 06:08:00,
2013-01-08 23:23:00,31.5,10.0,30.24,WSW,246,14.0,23.0,41,0.00,,,0.00,weatherlink.com 1.10,2013-01-09 06:23:00,
2013-01-08 23:38:00,31.4,10.0,30.23,SW,223,15.0,27.0,40,0.00,,,0.00,weatherlink.com 1.10,2013-01-09 06:38:00,
2013-01-08 23:53:00,31.8,9.0,30.23,WSW,252,19.0,32.0,39,0.00,,,0.00,weatherlink.com 1.10,2013-01-09 06:53:00,